Time,TemperatureF,DewpointF,PressureIn,WindDirection,WindDirectionDegrees,WindSpeedMPH,WindSpeedGustMPH,Humidity,HourlyPrecipIn,Conditions,Clouds,dailyrainin,SolarRadiationWatts/m^2,SoftwareType,DateUTC
2013-08-04 00:02:00,69.0,38.0,-100.00,WSW,246,10.0,18.0,32,0.00,,,0.00,0.000000,,2013-08-04 07:02:00,
2013-08-04 00:12:00,69.0,38.0,-100.00,WSW,246,10.0,18.0,32,0.00,,,0.00,0.000000,,2013-08-04 07:12:00,
2013-08-04 00:22:00,69.0,38.0,-100.00,WSW,246,10.0,18.0,32,0.00,,,0.00,0.000000,,2013-08-04 07:22:00,
2013-08-04 01:22:00,69.0,38.0,-100.00,SW,229,11.0,17.0,32,0.00,,,0.00,0.000000,,2013-08-04 08:22:00,
2013-08-04 02:52:00,65.0,41.0,-100.00,WSW,241,10.0,16.0,42,-99.99,,,0.00,0.000000,,2013-08-04 09:52:00,
2013-08-04 03:02:00,65.0,41.0,-100.00,WSW,241,10.0,16.0,42,-99.99,,,0.00,0.000000,,2013-08-04 10:02:00,
2013-08-04 03:12:00,65.0,41.0,-100.00,WSW,241,10.0,16.0,42,-99.99,,,0.00,0.000000,,2013-08-04 10:12:00,
2013-08-04 03:22:00,65.0,41.0,-100.00,WSW,241,10.0,16.0,42,-99.99,,,0.00,0.000000,,2013-08-04 10:22:00,
2013-08-04 03:53:00,61.0,44.0,-100.00,WSW,247,10.0,15.0,53,-99.99,,,0.00,0.000000,,2013-08-04 10:53:00,
2013-08-04 04:02:00,61.0,44.0,-100.00,WSW,247,10.0,15.0,53,-99.99,,,0.00,0.000000,,2013-08-04 11:02:00,
2013-08-04 04:12:00,61.0,44.0,-100.00,WSW,247,10.0,15.0,53,-99.99,,,0.00,0.000000,,2013-08-04 11:12:00,
2013-08-04 04:22:00,61.0,44.0,-100.00,WSW,247,10.0,15.0,53,-99.99,,,0.00,0.000000,,2013-08-04 11:22:00,
2013-08-04 04:53:00,54.0,48.0,-100.00,WSW,246,11.0,16.0,81,-99.99,,,0.00,0.000000,,2013-08-04 11:53:00,
2013-08-04 05:02:00,54.0,48.0,-100.00,WSW,246,11.0,16.0,81,-99.99,,,0.00,0.000000,,2013-08-04 12:02:00,
2013-08-04 05:12:00,54.0,48.0,-100.00,WSW,246,11.0,16.0,81,-99.99,,,0.00,0.000000,,2013-08-04 12:12:00,
2013-08-04 05:22:00,54.0,48.0,-100.00,WSW,246,11.0,16.0,81,-99.99,,,0.00,0.000000,,2013-08-04 12:22:00,
2013-08-04 05:53:00,50.0,49.0,-100.00,WSW,246,13.0,16.0,95,0.00,,,-99.99,0.000000,,2013-08-04 12:53:00,
2013-08-04 06:02:00,50.0,49.0,-100.00,WSW,246,13.0,16.0,95,0.00,,,-99.99,0.000000,,2013-08-04 13:02:00,
2013-08-04 06:12:00,50.0,49.0,-100.00,WSW,246,13.0,16.0,95,0.00,,,-99.99,0.000000,,2013-08-04 13:12:00,
2013-08-04 06:22:00,50.0,49.0,-100.00,WSW,246,13.0,16.0,95,0.00,,,-99.99,0.000000,,2013-08-04 13:22:00,
2013-08-04 06:52:00,56.0,50.0,-100.00,WSW,245,11.0,15.0,80,0.00,,,0.00,2.000000,,2013-08-04 13:52:00,
2013-08-04 07:02:00,56.0,50.0,-100.00,WSW,245,11.0,15.0,80,0.00,,,0.00,2.000000,,2013-08-04 14:02:00,
2013-08-04 07:12:00,56.0,50.0,-100.00,WSW,245,11.0,15.0,80,0.00,,,0.00,2.000000,,2013-08-04 14:12:00,
2013-08-04 07:22:00,56.0,50.0,-100.00,WSW,245,11.0,15.0,80,0.00,,,0.00,2.000000,,2013-08-04 14:22:00,
2013-08-04 07:53:00,54.0,44.0,-100.00,WSW,244,11.0,18.0,70,0.00,,,0.00,68.000000,,2013-08-04 14:53:00,
2013-08-04 08:02:00,54.0,44.0,-100.00,WSW,244,11.0,18.0,70,0.00,,,0.00,68.000000,,2013-08-04 15:02:00,
2013-08-04 08:12:00,54.0,44.0,-100.00,WSW,244,11.0,18.0,70,0.00,,,0.00,68.000000,,2013-08-04 15:12:00,
2013-08-04 08:22:00,54.0,44.0,-100.00,WSW,244,11.0,18.0,70,0.00,,,0.00,68.000000,,2013-08-04 15:22:00,
2013-08-04 08:53:00,57.0,52.0,-100.00,WSW,253,11.0,16.0,83,0.00,,,0.00,258.000000,,2013-08-04 15:53:00,
2013-08-04 09:02:00,57.0,52.0,-100.00,WSW,253,11.0,16.0,83,0.00,,,0.00,258.000000,,2013-08-04 16:02:00,
2013-08-04 09:12:00,57.0,52.0,-100.00,WSW,253,11.0,16.0,83,0.00,,,0.00,258.000000,,2013-08-04 16:12:00,
2013-08-04 09:22:00,57.0,52.0,-100.00,WSW,253,11.0,16.0,83,0.00,,,0.00,258.000000,,2013-08-04 16:22:00,
2013-08-04 09:53:00,60.0,54.0,-100.00,WSW,257,11.0,15.0,82,0.00,,,0.00,448.000000,,2013-08-04 16:53:00,
2013-08-04 10:02:00,60.0,54.0,-100.00,WSW,257,11.0,15.0,82,0.00,,,0.00,448.000000,,2013-08-04 17:02:00,
2013-08-04 10:12:00,60.0,54.0,-100.00,WSW,257,11.0,15.0,82,0.00,,,0.00,448.000000,,2013-08-04 17:12:00,
2013-08-04 10:22:00,60.0,54.0,-100.00,WSW,257,11.0,15.0,82,0.00,,,0.00,448.000000,,2013-08-04 17:22:00,
2013-08-04 10:53:00,64.0,53.0,-100.00,WSW,258,11.0,15.0,68,0.00,,,0.00,620.000000,,2013-08-04 17:53:00,
2013-08-04 11:02:00,64.0,53.0,-100.00,WSW,258,11.0,15.0,68,0.00,,,0.00,620.000000,,2013-08-04 18:02:00,
2013-08-04 11:12:00,64.0,53.0,-100.00,WSW,258,11.0,15.0,68,0.00,,,0.00,620.000000,,2013-08-04 18:12:00,
2013-08-04 11:22:00,64.0,53.0,-100.00,WSW,258,11.0,15.0,68,0.00,,,0.00,620.000000,,2013-08-04 18:22:00,
2013-08-04 11:52:00,67.0,53.0,-100.00,West,261,10.0,15.0,61,0.00,,,0.00,766.000000,,2013-08-04 18:52:00,
2013-08-04 12:02:00,67.0,53.0,-100.00,West,261,10.0,15.0,61,0.00,,,0.00,766.000000,,2013-08-04 19:02:00,
2013-08-04 12:12:00,67.0,53.0,-100.00,West,261,10.0,15.0,61,0.00,,,0.00,766.000000,,2013-08-04 19:12:00,
2013-08-04 12:22:00,67.0,53.0,-100.00,West,261,10.0,15.0,61,0.00,,,0.00,766.000000,,2013-08-04 19:22:00,
2013-08-04 12:52:00,69.0,54.0,-100.00,West,262,9.0,15.0,58,0.00,,,0.00,868.000000,,2013-08-04 19:52:00,
2013-08-04 13:02:00,69.0,54.0,-100.00,West,262,9.0,15.0,58,0.00,,,0.00,868.000000,,2013-08-04 20:02:00,
2013-08-04 13:12:00,69.0,54.0,-100.00,West,262,9.0,15.0,58,0.00,,,0.00,868.000000,,2013-08-04 20:12:00,
2013-08-04 13:22:00,69.0,54.0,-100.00,West,262,9.0,15.0,58,0.00,,,0.00,868.000000,,2013-08-04 20:22:00,
2013-08-04 13:53:00,73.0,50.0,-100.00,West,267,11.0,15.0,45,0.00,,,0.00,920.000000,,2013-08-04 20:53:00,
2013-08-04 14:02:00,73.0,50.0,-100.00,West,267,11.0,15.0,45,0.00,,,0.00,920.000000,,2013-08-04 21:02:00,
2013-08-04 14:12:00,73.0,50.0,-100.00,West,267,11.0,15.0,45,0.00,,,0.00,920.000000,,2013-08-04 21:12:00,
2013-08-04 14:22:00,73.0,50.0,-100.00,West,267,11.0,15.0,45,0.00,,,0.00,920.000000,,2013-08-04 21:22:00,
2013-08-04 14:53:00,75.0,52.0,-100.00,West,270,13.0,17.0,44,0.00,,,0.00,910.000000,,2013-08-04 21:53:00,
2013-08-04 15:01:00,75.0,52.0,-100.00,West,270,13.0,17.0,44,0.00,,,0.00,910.000000,,2013-08-04 22:01:00,
2013-08-04 15:12:00,75.0,52.0,-100.00,West,270,13.0,17.0,44,0.00,,,0.00,910.000000,,2013-08-04 22:12:00,
2013-08-04 15:22:00,75.0,52.0,-100.00,West,270,13.0,17.0,44,0.00,,,0.00,910.000000,,2013-08-04 22:22:00,
2013-08-04 15:53:00,77.0,47.0,-100.00,West,277,15.0,21.0,35,0.00,,,0.00,854.000000,,2013-08-04 22:53:00,
2013-08-04 16:02:00,77.0,47.0,-100.00,West,277,15.0,21.0,35,0.00,,,0.00,854.000000,,2013-08-04 23:02:00,
2013-08-04 16:11:00,77.0,47.0,-100.00,West,277,15.0,21.0,35,0.00,,,0.00,854.000000,,2013-08-04 23:11:00,
2013-08-04 16:22:00,77.0,47.0,-100.00,West,277,15.0,21.0,35,0.00,,,0.00,854.000000,,2013-08-04 23:22:00,
2013-08-04 16:53:00,77.0,48.0,-100.00,West,270,17.0,21.0,36,0.00,,,0.00,736.000000,,2013-08-04 23:53:00,
2013-08-04 17:02:00,77.0,48.0,-100.00,West,270,17.0,21.0,36,0.00,,,0.00,736.000000,,2013-08-05 00:02:00,
2013-08-04 17:12:00,77.0,48.0,-100.00,West,270,17.0,21.0,36,0.00,,,0.00,736.000000,,2013-08-05 00:12:00,
2013-08-04 17:22:00,77.0,48.0,-100.00,West,270,17.0,21.0,36,0.00,,,0.00,736.000000,,2013-08-05 00:22:00,
2013-08-04 17:52:00,76.0,46.0,-100.00,West,271,19.0,22.0,34,0.00,,,0.00,576.000000,,2013-08-05 00:52:00,
2013-08-04 18:02:00,76.0,46.0,-100.00,West,271,19.0,22.0,34,0.00,,,0.00,576.000000,,2013-08-05 01:02:00,
2013-08-04 18:12:00,76.0,46.0,-100.00,West,271,19.0,22.0,34,0.00,,,0.00,576.000000,,2013-08-05 01:12:00,
2013-08-04 18:22:00,76.0,46.0,-100.00,West,271,19.0,22.0,34,0.00,,,0.00,576.000000,,2013-08-05 01:22:00,
2013-08-04 18:52:00,70.0,47.0,-100.00,West,269,17.0,22.0,44,0.00,,,0.00,395.000000,,2013-08-05 01:52:00,
2013-08-04 19:02:00,70.0,47.0,-100.00,West,269,17.0,22.0,44,0.00,,,0.00,395.000000,,2013-08-05 02:02:00,
2013-08-04 19:12:00,70.0,47.0,-100.00,West,269,17.0,22.0,44,0.00,,,0.00,395.000000,,2013-08-05 02:12:00,
2013-08-04 19:22:00,70.0,47.0,-100.00,West,269,17.0,22.0,44,0.00,,,0.00,395.000000,,2013-08-05 02:22:00,
2013-08-04 19:53:00,64.0,46.0,-100.00,West,269,15.0,21.0,52,0.00,,,0.00,206.000000,,2013-08-05 02:53:00,
2013-08-04 20:02:00,64.0,46.0,-100.00,West,269,15.0,21.0,52,0.00,,,0.00,206.000000,,2013-08-05 03:02:00,
2013-08-04 20:12:00,64.0,46.0,-100.00,West,269,15.0,21.0,52,0.00,,,0.00,206.000000,,2013-08-05 03:12:00,
2013-08-04 20:22:00,64.0,46.0,-100.00,West,269,15.0,21.0,52,0.00,,,0.00,206.000000,,2013-08-05 03:22:00,
2013-08-04 20:53:00,56.0,46.0,-100.00,West,260,14.0,20.0,70,0.00,,,0.00,37.000000,,2013-08-05 03:53:00,
2013-08-04 21:02:00,56.0,46.0,-100.00,West,260,14.0,20.0,70,0.00,,,0.00,37.000000,,2013-08-05 04:02:00,
2013-08-04 21:12:00,56.0,46.0,-100.00,West,260,14.0,20.0,70,0.00,,,0.00,37.000000,,2013-08-05 04:12:00,
2013-08-04 21:21:00,56.0,46.0,-100.00,West,260,14.0,20.0,70,0.00,,,0.00,37.000000,,2013-08-05 04:21:00,
2013-08-04 21:52:00,52.0,48.0,-100.00,WSW,245,14.0,20.0,87,0.00,,,0.00,0.000000,,2013-08-05 04:52:00,
2013-08-04 22:01:00,52.0,48.0,-100.00,WSW,245,14.0,20.0,87,0.00,,,0.00,0.000000,,2013-08-05 05:01:00,
2013-08-04 22:11:00,52.0,48.0,-100.00,WSW,245,14.0,20.0,87,0.00,,,0.00,0.000000,,2013-08-05 05:11:00,
2013-08-04 22:22:00,52.0,48.0,-100.00,WSW,245,14.0,20.0,87,0.00,,,0.00,0.000000,,2013-08-05 05:22:00,
2013-08-04 22:53:00,51.0,50.0,-100.00,WSW,251,12.0,20.0,96,0.00,,,0.00,0.000000,,2013-08-05 05:53:00,
2013-08-04 23:02:00,51.0,50.0,-100.00,WSW,251,12.0,20.0,96,0.00,,,0.00,0.000000,,2013-08-05 06:02:00,
2013-08-04 23:11:00,51.0,50.0,-100.00,WSW,251,12.0,20.0,96,0.00,,,0.00,0.000000,,2013-08-05 06:11:00,
2013-08-04 23:22:00,51.0,50.0,-100.00,WSW,251,12.0,20.0,96,0.00,,,0.00,0.000000,,2013-08-05 06:22:00,
2013-08-04 23:52:00,64.0,52.0,-100.00,SW,233,10.0,15.0,65,0.00,,,0.00,0.000000,,2013-08-05 06:52:00,